Aérodrome :
LOGIN :

S'inscrire | Disclaimer

   EN    FR    IT 

 










Légende :    VFR   VFR Marginal   IFR   IFR Intensif   IFR Très Intensif
Visi : 
Plafond : 
>= 8 km
>= 3000ft
5 à 8 km
1000 à 3000 ft
1500m à 5 km
500 à 1000 ft
800 à 1500m
200 à 500 ft
< 800m
< 200 ft
Symboles :   Orages  Brouillard  Fortes neiges  Fortes précipitations  Vent > 20 kt
SIGMETs :   Divers  Orages  Givrage  Turbulence  Onde Orograph.  Cendres Volcan.







- Altitude de l'aérodrome : 137 ft


LIPS - Istrana AFB Treviso

DERNIER METAR :
  • 221755Z 11019KT 9999 TS FEW020CB SCT025 25/17 Q1009 RMK BKN VIS MIN 9999 WIND THR26 04014KT WIND THR08 10015G26KT BLU

METARs EXPIRÉS :
  • 221655Z 02003KT 9999 FEW020TCU SCT025 28/20 Q1009 RMK BKN VIS MIN 9999 WIND THR26 33003KT WIND THR08 02003KT BLU
  • 221555Z 28003KT 9999 FEW020TCU SCT025 28/20 Q1009 RMK BKN VIS MIN 9999 WIND THR26 22003KT WIND THR08 25002KT BLU

TAF TAF LIPS
Valide du 22 à 18h jusqu'au 23 à 03h UTC


221700Z 2218/2303 02005KT 9999 FEW030 SCT050
TEMPO 2218/2303 3000 TSRA FEW020CB SCT030
Pas de NOTAMs connus pour ce terrain.
1 SIGMET publié pour la FIR Milano (LIMM) :
 
Turbulence forte
LIMM SIGMET 1 VALID 221730/221930 LIIP
LIMM MILANO FIR SEV TURB FCST SE OF LINE N4622 E01003 - N4417 E00639 ABV FL280 STNR NC=



MET'MAP, la Météo Aéronautique d'un coup d'oeil ! - Copyright ORBIFLY Décembre 2007 - Disclaimer

ORBIFLY MET'MAP TEAM :

Programmation & Développement : Alexandra Zaïnal
Conception & Développement : Baudouin d'Aumeries
Co-Programmation & Développement : Marc-Olivier Méhu
Soutien technique & logistique : Manuel Goepfert

Contact : metmap@orbifly.com




SOURCES & CREDITS :

   NOAA